Time;durP1;ratioP1;P1;durP2;ratioP2;P2;SDS_P1;SDS_P2;PMS_P1;PMS_P2;Temp;Humidity;BMP_temperature;BMP_pressure;BME280_temperature;BME280_humidity;BME280_pressure;Samples;Min_cycle;Max_cycle;Signal;HPM_P1;HPM_P2
2024/01/03 00:00:27;;;;;;;3.90;0.80;;;21.30;41.90;;;;;;5008173;28;20044;-62
2024/01/03 00:02:54;;;;;;;2.00;1.05;;;21.30;41.90;;;;;;5003200;28;20113;-62
2024/01/03 00:05:22;;;;;;;2.47;0.90;;;21.30;41.90;;;;;;5006048;28;20455;-62
2024/01/03 00:07:48;;;;;;;1.50;0.63;;;21.30;42.00;;;;;;5004551;28;20054;-61
2024/01/03 00:10:35;;;;;;;2.53;1.05;;;21.30;41.90;;;;;;5009124;28;20057;-61
2024/01/03 00:13:04;;;;;;;2.53;0.88;;;21.30;41.80;;;;;;5005346;28;20117;-62
2024/01/03 00:15:35;;;;;;;3.42;1.30;;;21.30;41.90;;;;;;4999754;28;20344;-62
2024/01/03 00:18:06;;;;;;;3.65;1.45;;;21.30;41.80;;;;;;5004631;28;20120;-61
2024/01/03 00:20:35;;;;;;;4.72;2.30;;;21.30;41.80;;;;;;5003584;28;20110;-62
2024/01/03 00:23:10;;;;;;;6.28;3.00;;;21.30;41.80;;;;;;5006545;28;20034;-62
2024/01/03 00:25:36;;;;;;;4.90;3.10;;;21.30;41.80;;;;;;5002972;28;20031;-63
2024/01/03 00:28:02;;;;;;;6.47;3.65;;;21.30;41.80;;;;;;5002086;28;20026;-62
2024/01/03 00:30:28;;;;;;;5.95;3.55;;;21.20;41.70;;;;;;5002899;28;20064;-61
2024/01/03 00:32:54;;;;;;;6.15;3.25;;;21.20;41.80;;;;;;5008146;28;20356;-62
2024/01/03 00:35:20;;;;;;;5.50;3.30;;;21.20;41.70;;;;;;5005552;28;20100;-63
2024/01/03 00:37:46;;;;;;;6.82;3.33;;;21.20;41.70;;;;;;5008504;28;20440;-61
2024/01/03 00:40:52;;;;;;;6.78;3.17;;;21.20;41.70;;;;;;5008584;28;20033;-61
2024/01/03 00:43:18;;;;;;;6.30;3.40;;;21.20;41.70;;;;;;5000051;28;20472;-62
2024/01/03 00:45:44;;;;;;;5.13;2.80;;;21.20;41.70;;;;;;5002856;28;20057;-62
2024/01/03 00:48:10;;;;;;;6.25;3.17;;;21.10;41.60;;;;;;5001605;28;20096;-62
2024/01/03 00:50:36;;;;;;;5.25;2.75;;;21.20;41.70;;;;;;5004964;28;20026;-62
2024/01/03 00:53:01;;;;;;;5.30;3.30;;;21.20;41.70;;;;;;5008480;28;20037;-63
2024/01/03 00:55:27;;;;;;;5.57;3.25;;;21.10;41.60;;;;;;5006401;28;20029;-62
2024/01/03 00:57:53;;;;;;;5.82;3.05;;;21.10;41.60;;;;;;5003998;28;20025;-62
2024/01/03 01:00:19;;;;;;;6.13;2.85;;;21.10;41.60;;;;;;5006025;28;20520;-61
2024/01/03 01:02:45;;;;;;;5.45;2.55;;;21.10;41.60;;;;;;5007681;28;20072;-61
2024/01/03 01:05:11;;;;;;;4.65;2.22;;;21.10;41.60;;;;;;4996863;28;20034;-61
2024/01/03 01:07:39;;;;;;;5.15;2.38;;;21.10;41.50;;;;;;4999557;28;20136;-61
2024/01/03 01:10:05;;;;;;;4.43;2.20;;;21.10;41.50;;;;;;5006267;28;20045;-62
2024/01/03 01:12:31;;;;;;;6.30;2.72;;;21.10;41.50;;;;;;4997407;28;20025;-61
2024/01/03 01:14:59;;;;;;;4.93;2.35;;;21.10;41.50;;;;;;5003606;28;20100;-62
2024/01/03 01:17:25;;;;;;;4.53;2.35;;;21.10;41.50;;;;;;5006173;28;20034;-61
2024/01/03 01:19:51;;;;;;;5.75;2.20;;;21.10;41.50;;;;;;5003573;28;20072;-62
2024/01/03 01:22:18;;;;;;;5.07;2.10;;;21.00;41.40;;;;;;5001059;28;20111;-62
2024/01/03 01:24:43;;;;;;;4.15;1.83;;;21.10;41.50;;;;;;5006337;28;20097;-61
2024/01/03 01:27:09;;;;;;;3.72;1.98;;;21.00;41.40;;;;;;4998693;28;20429;-62
2024/01/03 01:29:35;;;;;;;3.88;2.22;;;21.00;41.40;;;;;;5003018;28;20049;-62
2024/01/03 01:32:02;;;;;;;4.03;2.15;;;21.00;41.40;;;;;;5001939;28;20092;-62
2024/01/03 01:34:29;;;;;;;3.65;1.83;;;21.00;41.50;;;;;;5003268;28;20052;-62
2024/01/03 01:36:54;;;;;;;3.75;1.77;;;21.00;41.40;;;;;;5006943;28;20030;-62
2024/01/03 01:39:20;;;;;;;5.43;2.65;;;21.00;41.50;;;;;;4998564;28;20061;-61
2024/01/03 01:41:46;;;;;;;5.57;2.67;;;21.00;41.50;;;;;;5003348;28;20042;-62
2024/01/03 01:44:12;;;;;;;3.28;1.83;;;21.00;41.50;;;;;;5005593;28;20112;-62
2024/01/03 01:46:39;;;;;;;4.68;1.88;;;21.00;41.50;;;;;;5004848;28;20087;-62
2024/01/03 01:49:07;;;;;;;6.15;1.80;;;21.00;41.50;;;;;;4999303;28;20026;-62
2024/01/03 01:51:35;;;;;;;4.82;1.77;;;21.00;41.50;;;;;;4997239;28;20121;-63
2024/01/03 01:54:02;;;;;;;4.32;1.90;;;21.00;41.50;;;;;;4999663;28;20081;-63
2024/01/03 01:56:30;;;;;;;4.68;2.08;;;21.00;41.50;;;;;;5003119;28;20380;-62
2024/01/03 01:58:56;;;;;;;3.15;1.50;;;21.00;41.50;;;;;;5002699;28;20453;-62
2024/01/03 02:01:22;;;;;;;4.00;1.60;;;20.90;41.50;;;;;;5004136;28;20034;-62
2024/01/03 02:03:50;;;;;;;4.03;1.80;;;20.90;41.50;;;;;;4999472;28;20053;-62
2024/01/03 02:06:19;;;;;;;3.75;1.77;;;20.90;41.50;;;;;;5003192;28;20045;-62
2024/01/03 02:08:45;;;;;;;3.17;1.50;;;20.90;41.50;;;;;;5003014;28;20109;-62
2024/01/03 02:11:12;;;;;;;4.03;1.90;;;20.90;41.50;;;;;;5004642;28;20057;-63
2024/01/03 02:13:38;;;;;;;4.15;1.52;;;20.90;41.50;;;;;;5006517;28;20341;-61
2024/01/03 02:16:07;;;;;;;3.88;1.50;;;20.90;41.50;;;;;;5005635;28;20038;-63
2024/01/03 02:18:33;;;;;;;4.50;1.50;;;20.90;41.50;;;;;;5000010;28;20211;-63
2024/01/03 02:21:00;;;;;;;3.20;1.40;;;20.90;41.70;;;;;;5007733;28;20030;-62
2024/01/03 02:23:26;;;;;;;4.03;1.33;;;20.90;41.50;;;;;;4999804;28;20026;-62
2024/01/03 02:25:52;;;;;;;5.47;1.98;;;20.90;41.50;;;;;;5002170;28;20453;-62
2024/01/03 02:28:18;;;;;;;4.53;1.67;;;20.90;41.50;;;;;;5004069;28;20036;-62
2024/01/03 02:30:45;;;;;;;4.63;1.80;;;20.90;41.50;;;;;;5007593;28;20029;-62
2024/01/03 02:33:11;;;;;;;3.50;1.38;;;20.90;41.50;;;;;;5008162;28;20037;-62
2024/01/03 02:35:37;;;;;;;3.90;1.48;;;20.90;41.50;;;;;;5001426;28;20396;-62
2024/01/03 02:38:03;;;;;;;4.88;1.50;;;20.80;41.50;;;;;;5005471;28;20101;-62
2024/01/03 02:40:29;;;;;;;4.60;1.70;;;20.90;41.50;;;;;;5006277;28;20444;-62
2024/01/03 02:42:55;;;;;;;3.42;1.30;;;20.80;41.50;;;;;;5001157;28;20022;-62
2024/01/03 02:45:21;;;;;;;3.00;1.33;;;20.80;41.50;;;;;;5007043;28;20026;-62
2024/01/03 02:47:46;;;;;;;2.90;1.17;;;20.80;41.50;;;;;;5003065;28;20444;-61
2024/01/03 02:50:12;;;;;;;3.72;1.50;;;20.80;41.50;;;;;;5002154;28;20120;-62
2024/01/03 02:52:38;;;;;;;3.78;1.42;;;20.80;41.50;;;;;;5008544;28;20084;-62
2024/01/03 02:55:04;;;;;;;4.13;1.40;;;20.80;41.50;;;;;;5004579;28;20022;-62
2024/01/03 02:57:30;;;;;;;4.28;1.40;;;20.80;41.50;;;;;;5002490;28;20022;-62
2024/01/03 02:59:56;;;;;;;4.07;1.52;;;20.80;41.50;;;;;;4997662;28;20093;-61
2024/01/03 03:02:22;;;;;;;4.65;1.67;;;20.80;41.50;;;;;;4998667;28;20022;-63
2024/01/03 03:04:47;;;;;;;3.53;1.42;;;20.80;41.50;;;;;;5002729;28;20018;-62
2024/01/03 03:07:13;;;;;;;3.45;1.45;;;20.80;42.20;;;;;;4996266;28;20036;-61
2024/01/03 03:09:39;;;;;;;2.75;1.13;;;20.80;41.60;;;;;;4981718;28;20059;-61
2024/01/03 03:12:06;;;;;;;3.63;1.45;;;20.80;41.60;;;;;;5009024;28;20046;-61
2024/01/03 03:14:32;;;;;;;3.58;1.45;;;20.80;41.70;;;;;;5004046;28;20049;-61
2024/01/03 03:16:58;;;;;;;4.95;1.38;;;20.70;41.70;;;;;;5002523;28;20485;-62
2024/01/03 03:19:24;;;;;;;5.03;1.77;;;20.70;41.70;;;;;;5002519;28;20068;-62
2024/01/03 03:21:50;;;;;;;2.83;1.38;;;20.70;41.70;;;;;;5005296;28;20026;-63
2024/01/03 03:24:16;;;;;;;3.75;1.48;;;20.70;41.70;;;;;;5006999;28;20045;-61
2024/01/03 03:26:41;;;;;;;4.15;1.35;;;20.70;41.70;;;;;;4999387;28;20183;-61
2024/01/03 03:29:07;;;;;;;3.63;1.38;;;20.70;41.70;;;;;;5001698;28;20037;-63
2024/01/03 03:31:33;;;;;;;4.43;1.23;;;20.70;41.70;;;;;;5004555;28;20038;-62
2024/01/03 03:33:59;;;;;;;3.40;1.35;;;20.70;41.80;;;;;;5009748;28;20053;-61
2024/01/03 03:36:24;;;;;;;3.15;1.15;;;20.70;41.80;;;;;;5011049;28;20026;-62
2024/01/03 03:38:50;;;;;;;3.88;1.13;;;20.70;41.80;;;;;;5008676;28;20037;-61
2024/01/03 03:41:19;;;;;;;4.65;1.42;;;20.70;41.80;;;;;;5006212;28;20396;-62
2024/01/03 03:43:45;;;;;;;6.35;1.55;;;20.70;41.90;;;;;;5006084;28;20404;-63
2024/01/03 03:46:15;;;;;;;4.32;1.10;;;20.70;41.90;;;;;;5002737;28;20030;-62
2024/01/03 03:48:41;;;;;;;3.80;1.30;;;20.60;41.90;;;;;;5007389;28;20023;-63
2024/01/03 03:51:07;;;;;;;2.92;1.33;;;20.60;41.90;;;;;;5007162;28;20050;-61
2024/01/03 03:53:33;;;;;;;5.07;1.58;;;20.70;42.00;;;;;;4997517;28;20413;-62
2024/01/03 03:55:59;;;;;;;3.08;1.08;;;20.60;42.00;;;;;;5002464;28;20026;-63
2024/01/03 03:58:25;;;;;;;5.45;1.77;;;20.70;42.10;;;;;;5007174;28;20413;-63
2024/01/03 04:00:50;;;;;;;4.03;1.30;;;20.60;42.00;;;;;;5004714;28;20129;-62
2024/01/03 04:03:17;;;;;;;4.72;1.75;;;20.60;42.00;;;;;;5004375;28;20072;-62
2024/01/03 04:05:42;;;;;;;4.07;1.48;;;20.60;42.10;;;;;;4997407;28;20027;-62
2024/01/03 04:08:09;;;;;;;4.72;1.58;;;20.60;42.10;;;;;;5006155;28;20049;-62
2024/01/03 04:10:34;;;;;;;5.38;1.60;;;20.60;42.20;;;;;;4999371;28;20077;-62
2024/01/03 04:13:00;;;;;;;2.80;1.25;;;20.60;42.20;;;;;;5001565;28;20062;-62
2024/01/03 04:15:26;;;;;;;3.45;1.30;;;20.60;42.20;;;;;;5005684;28;20105;-62
2024/01/03 04:17:52;;;;;;;2.95;1.10;;;20.60;42.20;;;;;;5002505;28;20022;-62
2024/01/03 04:20:20;;;;;;;4.03;1.40;;;20.60;42.90;;;;;;4997425;28;20027;-62
2024/01/03 04:22:46;;;;;;;2.50;1.00;;;20.60;42.20;;;;;;5000453;28;20030;-62
2024/01/03 04:25:12;;;;;;;4.20;1.45;;;20.60;42.20;;;;;;5005126;28;20026;-62
2024/01/03 04:27:38;;;;;;;4.10;1.55;;;20.60;42.20;;;;;;5006620;28;20104;-62
2024/01/03 04:30:05;;;;;;;2.35;1.10;;;20.60;42.30;;;;;;4998607;28;20044;-63
2024/01/03 04:32:31;;;;;;;3.95;1.33;;;20.60;42.30;;;;;;5005852;28;20039;-62
2024/01/03 04:34:57;;;;;;;4.63;1.48;;;20.60;42.30;;;;;;5005990;28;20389;-62
2024/01/03 04:37:23;;;;;;;3.90;1.55;;;20.60;42.30;;;;;;5003253;28;20053;-63
2024/01/03 04:39:48;;;;;;;4.30;1.20;;;20.50;42.30;;;;;;5004115;28;20030;-62
2024/01/03 04:42:14;;;;;;;3.88;1.55;;;20.50;42.30;;;;;;5000198;28;20050;-62
2024/01/03 04:44:41;;;;;;;3.42;1.35;;;20.50;42.30;;;;;;5008331;28;20033;-62
2024/01/03 04:47:06;;;;;;;4.28;1.48;;;20.50;42.30;;;;;;5000902;28;20038;-63
2024/01/03 04:49:32;;;;;;;4.53;1.48;;;20.50;42.30;;;;;;5005921;28;20093;-63
2024/01/03 04:51:58;;;;;;;4.70;1.42;;;20.50;42.40;;;;;;5002843;28;20072;-63
2024/01/03 04:54:24;;;;;;;3.63;1.35;;;20.50;42.40;;;;;;5010680;28;20410;-62
2024/01/03 04:56:50;;;;;;;3.92;1.40;;;20.50;42.40;;;;;;5006168;28;20042;-63
2024/01/03 04:59:15;;;;;;;4.15;1.70;;;20.50;42.40;;;;;;5005120;28;20026;-62
2024/01/03 05:01:42;;;;;;;4.97;1.30;;;20.50;42.40;;;;;;5007340;28;20018;-62
2024/01/03 05:04:08;;;;;;;3.88;1.60;;;20.50;42.50;;;;;;4999430;28;20038;-62
2024/01/03 05:06:35;;;;;;;5.35;1.98;;;20.50;42.50;;;;;;5003242;28;20134;-62
2024/01/03 05:09:00;;;;;;;5.00;1.65;;;20.50;42.50;;;;;;5004190;28;20436;-61
2024/01/03 05:11:26;;;;;;;4.05;1.80;;;20.50;42.50;;;;;;4997603;28;20051;-61
2024/01/03 05:13:52;;;;;;;4.38;1.88;;;20.50;42.50;;;;;;4999260;28;20022;-62
2024/01/03 05:16:18;;;;;;;4.72;1.77;;;20.50;42.50;;;;;;5006130;28;20022;-62
2024/01/03 05:18:43;;;;;;;5.35;1.92;;;20.50;42.50;;;;;;5003895;28;20041;-62
2024/01/03 05:21:10;;;;;;;5.70;1.90;;;20.50;42.50;;;;;;5006787;28;20422;-62
2024/01/03 05:23:36;;;;;;;4.40;1.58;;;20.50;42.50;;;;;;5009559;28;20037;-62
2024/01/03 05:26:02;;;;;;;3.40;1.38;;;20.50;42.50;;;;;;5003398;28;20434;-62
2024/01/03 05:28:28;;;;;;;5.20;1.67;;;20.40;42.50;;;;;;4998692;28;20018;-64
2024/01/03 05:30:54;;;;;;;4.72;1.75;;;20.40;42.50;;;;;;5004696;28;20041;-62
2024/01/03 05:33:19;;;;;;;5.05;1.73;;;20.40;42.50;;;;;;5012552;28;20022;-62
2024/01/03 05:35:45;;;;;;;5.35;1.77;;;20.40;42.50;;;;;;5004864;28;20025;-62
2024/01/03 05:38:11;;;;;;;4.00;1.67;;;20.40;42.50;;;;;;5010242;28;20127;-62
2024/01/03 05:40:37;;;;;;;5.25;1.80;;;20.40;43.20;;;;;;4993576;28;20050;-63
2024/01/03 05:43:03;;;;;;;4.50;1.80;;;20.40;42.60;;;;;;5000996;28;20022;-62
2024/01/03 05:45:29;;;;;;;3.75;1.60;;;20.40;42.60;;;;;;5001519;28;20077;-62
2024/01/03 05:47:54;;;;;;;4.78;1.70;;;20.40;42.70;;;;;;5000780;28;20026;-61
2024/01/03 05:50:20;;;;;;;3.63;1.20;;;20.40;42.70;;;;;;5004108;28;20022;-63
2024/01/03 05:52:46;;;;;;;3.65;1.20;;;20.40;42.80;;;;;;5000577;28;20053;-63
2024/01/03 05:55:12;;;;;;;2.80;1.42;;;20.40;42.90;;;;;;5004412;28;20034;-62
2024/01/03 05:57:38;;;;;;;2.60;1.13;;;20.40;42.90;;;;;;5011042;28;20021;-63
2024/01/03 06:00:05;;;;;;;4.47;1.90;;;20.40;43.00;;;;;;4998801;28;20521;-63
2024/01/03 06:02:31;;;;;;;3.60;1.48;;;20.40;43.00;;;;;;5005522;28;20027;-63
2024/01/03 06:04:57;;;;;;;5.00;1.27;;;20.30;43.10;;;;;;5000753;28;20034;-62
2024/01/03 06:07:22;;;;;;;3.72;1.50;;;20.30;43.20;;;;;;5003879;28;20437;-62
2024/01/03 06:09:48;;;;;;;3.17;1.30;;;20.30;43.10;;;;;;5004795;28;20455;-62
2024/01/03 06:12:14;;;;;;;3.50;1.20;;;20.30;43.20;;;;;;4998400;28;20046;-62
2024/01/03 06:14:40;;;;;;;5.72;1.55;;;20.30;43.20;;;;;;5005913;28;20044;-62
2024/01/03 06:17:05;;;;;;;2.22;1.08;;;20.30;43.20;;;;;;5001570;28;20026;-62
2024/01/03 06:19:31;;;;;;;2.97;1.15;;;20.30;43.30;;;;;;5009265;28;20433;-64
2024/01/03 06:21:57;;;;;;;2.25;0.75;;;20.30;43.30;;;;;;5003756;28;20330;-62
2024/01/03 06:24:23;;;;;;;2.58;1.02;;;20.30;43.30;;;;;;4990317;28;20030;-62
2024/01/03 06:26:48;;;;;;;4.68;1.30;;;20.30;43.30;;;;;;4997979;28;20027;-63
2024/01/03 06:29:15;;;;;;;2.72;1.08;;;20.30;43.40;;;;;;5003069;28;20369;-62
2024/01/03 06:31:41;;;;;;;2.28;1.02;;;20.30;43.30;;;;;;5002896;28;20046;-62
2024/01/03 06:34:07;;;;;;;3.15;1.00;;;20.30;43.40;;;;;;5001659;28;20465;-63
2024/01/03 06:36:33;;;;;;;2.60;1.10;;;20.30;43.40;;;;;;5006904;28;20036;-62
2024/01/03 06:38:59;;;;;;;2.53;0.93;;;20.30;43.40;;;;;;5001654;28;20396;-62
2024/01/03 06:41:24;;;;;;;3.65;1.10;;;20.30;43.40;;;;;;5003281;28;20022;-62
2024/01/03 06:43:50;;;;;;;2.67;0.90;;;20.30;43.40;;;;;;5003622;28;20026;-63
2024/01/03 06:46:16;;;;;;;3.60;1.10;;;20.30;43.40;;;;;;5003763;28;20022;-62
2024/01/03 06:48:42;;;;;;;3.13;1.50;;;20.20;43.30;;;;;;5005222;28;20018;-62
2024/01/03 06:51:07;;;;;;;2.90;0.90;;;20.30;43.40;;;;;;5002080;28;20484;-64
2024/01/03 06:53:37;;;;;;;2.58;0.70;;;20.30;43.40;;;;;;5006853;28;20033;-64
2024/01/03 06:56:03;;;;;;;1.85;0.85;;;20.30;43.40;;;;;;5004906;28;20029;-62
2024/01/03 06:58:29;;;;;;;1.75;0.60;;;20.20;43.40;;;;;;5008379;28;20362;-62
2024/01/03 07:00:55;;;;;;;1.77;0.90;;;20.20;43.40;;;;;;5007333;28;20514;-62
2024/01/03 07:03:20;;;;;;;2.58;1.00;;;20.20;43.40;;;;;;5006181;28;20072;-62
2024/01/03 07:05:46;;;;;;;3.65;0.77;;;20.20;43.40;;;;;;5004879;28;20026;-62
2024/01/03 07:08:12;;;;;;;1.67;0.63;;;20.20;43.40;;;;;;5006879;28;20022;-62
2024/01/03 07:10:38;;;;;;;1.45;0.60;;;20.20;43.40;;;;;;5003032;28;20058;-63
2024/01/03 07:13:04;;;;;;;1.42;0.68;;;20.20;43.40;;;;;;5007347;28;20042;-64
2024/01/03 07:15:31;;;;;;;1.85;0.73;;;20.20;43.40;;;;;;5000416;28;20030;-63
2024/01/03 07:17:56;;;;;;;3.08;0.90;;;20.20;43.40;;;;;;5001918;28;20027;-63
2024/01/03 07:20:22;;;;;;;2.13;0.77;;;20.20;43.40;;;;;;5004913;28;20096;-63
2024/01/03 07:22:49;;;;;;;1.60;0.70;;;20.20;43.40;;;;;;5006848;28;20037;-62
2024/01/03 07:25:15;;;;;;;3.05;0.60;;;20.20;44.00;;;;;;5006799;28;20329;-62
2024/01/03 07:27:41;;;;;;;1.52;0.47;;;20.20;43.40;;;;;;5003358;28;20026;-62
2024/01/03 07:30:09;;;;;;;1.27;0.60;;;20.10;43.30;;;;;;5010060;28;20119;-61
2024/01/03 07:32:34;;;;;;;1.10;0.47;;;20.10;43.90;;;;;;5009486;28;20033;-62
2024/01/03 07:35:00;;;;;;;1.40;0.60;;;20.20;43.30;;;;;;5004338;28;20029;-62
2024/01/03 07:37:27;;;;;;;1.65;0.80;;;20.20;43.30;;;;;;5003648;28;20034;-62
2024/01/03 07:39:52;;;;;;;1.50;0.65;;;20.10;43.30;;;;;;5007202;28;20118;-62
2024/01/03 07:42:18;;;;;;;1.58;0.57;;;20.20;43.40;;;;;;5003013;28;20105;-62
2024/01/03 07:44:44;;;;;;;1.15;0.40;;;20.10;43.30;;;;;;5008904;28;20115;-61
2024/01/03 07:47:13;;;;;;;1.10;0.40;;;20.10;43.30;;;;;;5006891;28;20117;-62
2024/01/03 07:49:39;;;;;;;2.35;0.65;;;20.10;43.30;;;;;;5004956;28;20034;-62
2024/01/03 07:52:05;;;;;;;1.00;0.50;;;20.20;43.40;;;;;;5004029;28;20069;-64
2024/01/03 07:54:31;;;;;;;1.40;0.60;;;20.10;43.30;;;;;;5009627;28;20092;-63
2024/01/03 07:56:58;;;;;;;2.60;0.80;;;20.10;43.30;;;;;;5004942;28;20034;-63
2024/01/03 07:59:25;;;;;;;1.35;0.55;;;20.20;43.30;;;;;;5000760;28;20026;-62
2024/01/03 08:01:51;;;;;;;2.00;0.50;;;20.10;43.30;;;;;;5001232;28;20034;-62
2024/01/03 08:04:17;;;;;;;2.45;0.60;;;20.10;43.30;;;;;;5005684;28;20049;-63
2024/01/03 08:06:43;;;;;;;2.22;0.50;;;20.10;43.30;;;;;;5004618;28;20092;-62
2024/01/03 08:09:10;;;;;;;1.63;0.70;;;20.10;43.30;;;;;;5000932;28;20030;-63
2024/01/03 08:11:37;;;;;;;2.00;0.70;;;20.10;43.30;;;;;;5011492;28;20108;-63
2024/01/03 08:14:03;;;;;;;1.02;0.30;;;20.10;43.20;;;;;;4981586;28;20038;-62
2024/01/03 08:16:29;;;;;;;2.17;0.50;;;20.10;43.20;;;;;;5000856;28;20023;-61
2024/01/03 08:18:56;;;;;;;2.30;0.60;;;20.10;43.20;;;;;;5001074;28;20026;-62
2024/01/03 08:21:22;;;;;;;2.28;0.77;;;20.10;43.20;;;;;;4998636;28;20545;-62
2024/01/03 08:23:48;;;;;;;1.58;0.50;;;20.10;43.20;;;;;;5001721;28;20035;-62
2024/01/03 08:26:14;;;;;;;1.42;0.35;;;20.10;43.20;;;;;;5000965;28;20034;-63
2024/01/03 08:28:41;;;;;;;1.30;0.45;;;20.10;43.20;;;;;;5006867;28;20032;-62
2024/01/03 08:31:18;;;;;;;1.52;0.65;;;20.10;43.20;;;;;;5003893;28;20049;-62
2024/01/03 08:33:46;;;;;;;1.05;0.50;;;20.10;43.20;;;;;;4991891;28;20092;-62
2024/01/03 08:36:14;;;;;;;2.28;0.47;;;20.10;43.20;;;;;;5002343;28;20440;-61
2024/01/03 08:38:40;;;;;;;1.73;0.45;;;20.10;43.20;;;;;;5004607;28;20165;-62
2024/01/03 08:41:18;;;;;;;1.48;0.40;;;20.10;43.20;;;;;;5004767;28;20142;-62
2024/01/03 08:43:45;;;;;;;1.00;0.45;;;20.10;43.20;;;;;;5003203;28;20025;-57
2024/01/03 08:46:17;;;;;;;2.33;0.70;;;20.10;43.20;;;;;;5014569;28;20484;-66
2024/01/03 08:48:46;;;;;;;1.52;0.52;;;20.10;43.30;;;;;;5011552;28;20026;-65
2024/01/03 08:51:19;;;;;;;1.83;0.63;;;20.10;43.30;;;;;;5010611;28;20018;-66
2024/01/03 08:53:54;;;;;;;2.83;0.63;;;20.10;43.40;;;;;;5007584;28;20390;-63
2024/01/03 08:56:30;;;;;;;1.55;0.70;;;20.10;43.50;;;;;;5000631;28;20037;-63
2024/01/03 08:58:59;;;;;;;2.65;0.70;;;20.20;43.60;;;;;;5000225;28;20018;-63
2024/01/03 09:01:29;;;;;;;1.25;0.55;;;20.20;43.70;;;;;;5005678;28;20022;-62
2024/01/03 09:04:03;;;;;;;3.80;1.00;;;20.20;43.70;;;;;;4999024;28;20026;-63
2024/01/03 09:06:35;;;;;;;1.90;0.60;;;20.30;43.70;;;;;;5006597;28;20484;-63
2024/01/03 09:09:06;;;;;;;1.90;0.80;;;20.30;43.70;;;;;;5001305;28;20044;-63
2024/01/03 09:11:34;;;;;;;1.50;0.60;;;20.40;43.70;;;;;;4993264;28;20054;-63
2024/01/03 09:14:02;;;;;;;2.67;0.55;;;20.40;43.60;;;;;;4996655;28;20493;-64
2024/01/03 09:16:30;;;;;;;1.15;0.50;;;20.50;43.60;;;;;;4994979;28;20473;-63
2024/01/03 09:18:57;;;;;;;2.38;0.70;;;20.50;43.50;;;;;;4999865;28;20041;-64
2024/01/03 09:21:23;;;;;;;2.72;0.60;;;20.60;43.40;;;;;;5011755;28;20030;-63
2024/01/03 09:23:50;;;;;;;1.38;0.70;;;20.70;43.40;;;;;;4998145;28;20037;-63
2024/01/03 09:26:20;;;;;;;1.88;0.63;;;20.70;43.30;;;;;;5010000;28;20451;-64
2024/01/03 09:28:47;;;;;;;2.47;0.60;;;20.80;43.30;;;;;;5001101;28;20033;-63
2024/01/03 09:31:14;;;;;;;2.42;0.80;;;20.90;43.20;;;;;;5005613;28;20054;-65
2024/01/03 09:33:41;;;;;;;2.08;0.82;;;20.90;43.20;;;;;;5009231;28;20095;-65
2024/01/03 09:36:19;;;;;;;1.27;0.50;;;21.00;43.20;;;;;;5006476;28;20032;-64
2024/01/03 09:38:47;;;;;;;1.08;0.38;;;21.10;43.20;;;;;;5004347;28;20438;-61
2024/01/03 09:41:14;;;;;;;1.67;0.60;;;21.20;43.20;;;;;;4997814;28;20101;-62
2024/01/03 09:43:42;;;;;;;2.40;1.00;;;21.30;43.20;;;;;;4994962;28;20036;-62
2024/01/03 09:46:12;;;;;;;2.67;0.70;;;21.30;43.10;;;;;;4994688;28;20027;-63
2024/01/03 09:48:47;;;;;;;1.30;0.50;;;21.40;43.00;;;;;;4994798;28;20041;-64
2024/01/03 09:51:13;;;;;;;1.55;0.43;;;21.40;42.90;;;;;;4992337;28;20346;-64
2024/01/03 09:53:54;;;;;;;1.20;0.50;;;21.50;42.90;;;;;;4994174;28;20048;-64
2024/01/03 09:56:20;;;;;;;1.70;0.45;;;21.60;42.80;;;;;;4994123;28;20027;-64
2024/01/03 09:58:47;;;;;;;1.58;0.60;;;21.60;42.70;;;;;;4995734;28;20064;-64
2024/01/03 10:01:15;;;;;;;2.47;0.73;;;21.70;42.70;;;;;;4994704;28;20354;-63
2024/01/03 10:03:46;;;;;;;2.03;0.70;;;21.80;42.70;;;;;;4993185;28;20026;-64
2024/01/03 10:06:13;;;;;;;1.08;0.45;;;21.80;42.50;;;;;;4994390;28;20108;-63
2024/01/03 10:08:40;;;;;;;1.10;0.43;;;21.90;42.50;;;;;;4993002;28;20037;-61
2024/01/03 10:11:20;;;;;;;1.80;0.90;;;21.90;42.50;;;;;;4994445;28;20062;-62
2024/01/03 10:13:49;;;;;;;2.97;0.82;;;22.00;42.40;;;;;;4992181;28;20058;-60
2024/01/03 10:16:25;;;;;;;2.00;0.80;;;22.00;42.30;;;;;;4993257;28;20350;-61
2024/01/03 10:19:13;;;;;;;1.92;0.68;;;22.10;42.30;;;;;;4993520;28;20080;-61
2024/01/03 10:21:49;;;;;;;2.30;0.70;;;22.10;42.20;;;;;;4993546;28;20045;-61
2024/01/03 10:24:16;;;;;;;2.33;0.65;;;22.20;42.20;;;;;;5007953;28;20033;-62
2024/01/03 10:26:41;;;;;;;2.25;0.80;;;22.20;42.20;;;;;;5003417;28;20053;-62
2024/01/03 10:29:11;;;;;;;2.20;0.80;;;22.20;42.70;;;;;;5000947;28;20441;-62
2024/01/03 10:31:37;;;;;;;2.22;0.82;;;22.20;42.00;;;;;;5006832;28;20026;-61
2024/01/03 10:34:06;;;;;;;2.17;0.77;;;22.30;42.00;;;;;;5011290;28;20100;-61
2024/01/03 10:36:34;;;;;;;2.60;0.65;;;22.30;42.10;;;;;;5001355;28;20033;-62
2024/01/03 10:39:02;;;;;;;3.33;0.80;;;22.30;42.10;;;;;;4997748;28;20105;-61
2024/01/03 10:41:32;;;;;;;2.28;1.05;;;22.30;42.20;;;;;;5011060;28;20026;-60
2024/01/03 10:44:02;;;;;;;4.10;0.80;;;22.40;42.40;;;;;;4995026;28;20029;-64
2024/01/03 10:46:28;;;;;;;1.35;0.50;;;22.40;42.60;;;;;;4998199;28;20118;-61
2024/01/03 10:48:55;;;;;;;2.33;0.80;;;22.40;42.80;;;;;;4998382;28;20400;-58
2024/01/03 10:51:30;;;;;;;2.70;0.82;;;22.40;43.00;;;;;;4996023;28;20348;-66
2024/01/03 10:53:58;;;;;;;2.13;0.75;;;22.40;43.20;;;;;;4992836;28;20039;-62
2024/01/03 10:56:25;;;;;;;3.30;1.27;;;22.40;43.30;;;;;;5001770;28;20031;-63
2024/01/03 10:58:53;;;;;;;3.38;1.10;;;22.40;43.40;;;;;;5007919;28;20057;-64
2024/01/03 11:01:33;;;;;;;3.10;1.60;;;22.40;43.40;;;;;;4992153;28;20109;-62
2024/01/03 11:04:16;;;;;;;6.10;2.83;;;22.40;43.60;;;;;;5000463;28;20084;-61
2024/01/03 11:07:09;;;;;;;7.60;3.95;;;22.40;44.30;;;;;;5001837;28;20096;-61
2024/01/03 11:09:36;;;;;;;13.07;4.50;;;22.40;45.10;;;;;;4997778;28;20026;-63
2024/01/03 11:12:15;;;;;;;14.45;5.07;;;22.40;45.50;;;;;;4997037;28;20061;-64
2024/01/03 11:14:41;;;;;;;13.20;5.20;;;22.40;46.40;;;;;;4995112;28;20035;-62
2024/01/03 11:17:10;;;;;;;13.43;4.85;;;22.40;46.80;;;;;;5003215;28;20037;-67
2024/01/03 11:19:38;;;;;;;10.90;4.15;;;22.40;47.00;;;;;;5009285;28;20052;-64
2024/01/03 11:22:04;;;;;;;9.50;3.20;;;22.40;47.00;;;;;;5001183;28;20038;-63
2024/01/03 11:24:30;;;;;;;6.85;2.72;;;22.40;46.70;;;;;;4992318;28;20453;-64
2024/01/03 11:26:56;;;;;;;5.78;2.22;;;22.40;46.30;;;;;;5005366;28;20088;-63
2024/01/03 11:29:41;;;;;;;9.10;2.55;;;22.40;45.90;;;;;;4999946;28;20031;-63
2024/01/03 11:32:07;;;;;;;;;;;22.30;45.40;;;;;;5005328;28;20093;-64
2024/01/03 11:34:46;;;;;;;3.90;1.58;;;22.30;45.30;;;;;;5001522;28;19961;-63
2024/01/03 11:37:11;;;;;;;4.65;1.77;;;22.30;45.10;;;;;;5000814;28;20038;-63
2024/01/03 11:39:42;;;;;;;4.50;1.90;;;22.30;44.90;;;;;;5004115;28;20038;-63
2024/01/03 11:42:08;;;;;;;5.97;2.25;;;22.30;44.70;;;;;;5008284;28;20038;-63
2024/01/03 11:44:35;;;;;;;5.03;1.73;;;22.20;44.50;;;;;;5009466;28;20035;-64
2024/01/03 11:47:04;;;;;;;4.78;1.77;;;22.20;44.30;;;;;;5009031;28;20022;-64
2024/01/03 11:49:30;;;;;;;3.30;1.60;;;22.20;44.10;;;;;;5002273;28;20089;-64
2024/01/03 11:51:59;;;;;;;3.65;1.30;;;22.20;44.00;;;;;;5002798;28;20465;-63
2024/01/03 11:54:25;;;;;;;4.30;1.73;;;22.20;43.90;;;;;;5001917;28;20029;-62
2024/01/03 11:56:53;;;;;;;3.70;1.70;;;22.10;43.80;;;;;;5009472;28;20053;-63
2024/01/03 11:59:22;;;;;;;4.28;1.50;;;22.10;43.70;;;;;;5005256;28;20038;-63
2024/01/03 12:01:56;;;;;;;5.53;2.15;;;22.10;43.60;;;;;;5003921;28;20393;-67
2024/01/03 12:04:22;;;;;;;4.82;1.70;;;22.10;43.60;;;;;;4999862;28;20022;-65
2024/01/03 12:06:48;;;;;;;4.30;1.40;;;22.10;43.50;;;;;;5000758;28;20022;-64
2024/01/03 12:09:14;;;;;;;3.28;1.40;;;22.10;43.50;;;;;;5006745;28;20029;-64
2024/01/03 12:11:41;;;;;;;3.78;1.30;;;22.10;43.40;;;;;;5010871;28;20129;-65
2024/01/03 12:14:07;;;;;;;4.68;1.63;;;22.00;43.30;;;;;;5002371;28;20083;-64
2024/01/03 12:16:47;;;;;;;3.95;1.52;;;22.00;43.30;;;;;;4986744;28;20033;-64
2024/01/03 12:19:27;;;;;;;3.83;1.25;;;22.00;43.20;;;;;;5009495;28;20109;-64
2024/01/03 12:22:02;;;;;;;3.55;1.33;;;22.00;43.20;;;;;;5006776;28;20084;-65
2024/01/03 12:24:38;;;;;;;5.05;1.83;;;22.00;43.10;;;;;;4998490;28;20058;-64
2024/01/03 12:27:11;;;;;;;3.38;1.50;;;22.00;43.10;;;;;;4999322;28;20034;-64
2024/01/03 12:29:39;;;;;;;3.25;1.55;;;22.00;43.10;;;;;;4997364;28;20027;-64
2024/01/03 12:32:20;;;;;;;3.35;1.33;;;21.90;43.10;;;;;;4999000;28;20035;-64
2024/01/03 12:35:03;;;;;;;4.43;1.50;;;21.90;43.00;;;;;;4995375;28;20057;-64
2024/01/03 12:37:29;;;;;;;3.33;1.55;;;21.90;43.00;;;;;;4995539;28;20500;-64
2024/01/03 12:39:54;;;;;;;5.13;1.63;;;21.90;43.00;;;;;;5006008;28;20026;-64
2024/01/03 12:42:20;;;;;;;3.08;1.27;;;21.90;43.00;;;;;;5001232;28;20026;-64
2024/01/03 12:44:46;;;;;;;3.05;1.05;;;21.90;42.90;;;;;;5002956;28;20365;-65
2024/01/03 12:47:13;;;;;;;2.25;0.95;;;21.80;42.90;;;;;;4997301;28;20399;-66
2024/01/03 12:49:40;;;;;;;3.38;1.13;;;21.90;42.90;;;;;;5000576;28;20030;-65